sensor_id;sensor_type;location;lat;lon;timestamp;temperature;humidity
70726;DHT22;58304;53.104;6.022;2023-03-03T00:01:07;2.30;99.90
70726;DHT22;58304;53.104;6.022;2023-03-03T00:03:34;2.30;99.90
70726;DHT22;58304;53.104;6.022;2023-03-03T00:06:03;2.20;99.90
70726;DHT22;58304;53.104;6.022;2023-03-03T00:08:29;2.20;99.90
70726;DHT22;58304;53.104;6.022;2023-03-03T00:10:57;2.20;99.90
70726;DHT22;58304;53.104;6.022;2023-03-03T00:13:26;2.10;99.90
70726;DHT22;58304;53.104;6.022;2023-03-03T00:15:52;2.00;99.90
70726;DHT22;58304;53.104;6.022;2023-03-03T00:18:35;2.00;99.90
70726;DHT22;58304;53.104;6.022;2023-03-03T00:21:03;1.90;99.90
70726;DHT22;58304;53.104;6.022;2023-03-03T00:23:37;1.90;99.90
70726;DHT22;58304;53.104;6.022;2023-03-03T00:26:26;1.90;99.90
70726;DHT22;58304;53.104;6.022;2023-03-03T00:28:54;1.80;99.90
70726;DHT22;58304;53.104;6.022;2023-03-03T00:31:35;1.70;99.90
70726;DHT22;58304;53.104;6.022;2023-03-03T00:36:42;1.60;99.90
70726;DHT22;58304;53.104;6.022;2023-03-03T00:39:30;1.50;99.90
70726;DHT22;58304;53.104;6.022;2023-03-03T00:41:58;1.50;99.90
70726;DHT22;58304;53.104;6.022;2023-03-03T00:44:41;1.40;99.90
70726;DHT22;58304;53.104;6.022;2023-03-03T00:49:53;1.30;99.90
70726;DHT22;58304;53.104;6.022;2023-03-03T00:52:19;1.20;99.90
70726;DHT22;58304;53.104;6.022;2023-03-03T00:54:46;1.10;99.90
70726;DHT22;58304;53.104;6.022;2023-03-03T00:57:11;1.00;99.90
70726;DHT22;58304;53.104;6.022;2023-03-03T00:59:38;0.90;99.90
70726;DHT22;58304;53.104;6.022;2023-03-03T01:02:04;0.80;99.90
70726;DHT22;58304;53.104;6.022;2023-03-03T01:04:30;0.70;99.90
70726;DHT22;58304;53.104;6.022;2023-03-03T01:06:55;0.60;99.90
70726;DHT22;58304;53.104;6.022;2023-03-03T01:09:21;0.50;99.90
70726;DHT22;58304;53.104;6.022;2023-03-03T01:11:47;0.40;99.90
70726;DHT22;58304;53.104;6.022;2023-03-03T01:14:13;0.50;99.90
70726;DHT22;58304;53.104;6.022;2023-03-03T01:16:38;0.40;99.90
70726;DHT22;58304;53.104;6.022;2023-03-03T01:19:06;0.40;99.90
70726;DHT22;58304;53.104;6.022;2023-03-03T01:21:31;0.20;99.90
70726;DHT22;58304;53.104;6.022;2023-03-03T01:23:57;0.10;99.90
70726;DHT22;58304;53.104;6.022;2023-03-03T01:26:23;0.10;99.90
70726;DHT22;58304;53.104;6.022;2023-03-03T01:28:48;0.00;99.90
70726;DHT22;58304;53.104;6.022;2023-03-03T01:31:14;-0.10;99.90
70726;DHT22;58304;53.104;6.022;2023-03-03T01:33:39;-0.10;99.90
70726;DHT22;58304;53.104;6.022;2023-03-03T01:36:05;-0.10;99.90
70726;DHT22;58304;53.104;6.022;2023-03-03T01:38:35;-0.10;99.90
70726;DHT22;58304;53.104;6.022;2023-03-03T01:41:01;-0.10;99.90
70726;DHT22;58304;53.104;6.022;2023-03-03T01:43:28;-0.10;99.90
70726;DHT22;58304;53.104;6.022;2023-03-03T01:53:43;-0.20;99.90
70726;DHT22;58304;53.104;6.022;2023-03-03T01:56:10;-0.20;99.90
70726;DHT22;58304;53.104;6.022;2023-03-03T01:58:41;-0.30;99.90
70726;DHT22;58304;53.104;6.022;2023-03-03T02:01:13;-0.30;99.90
70726;DHT22;58304;53.104;6.022;2023-03-03T02:03:41;-0.40;99.90
70726;DHT22;58304;53.104;6.022;2023-03-03T02:06:11;-0.50;99.90
70726;DHT22;58304;53.104;6.022;2023-03-03T02:08:53;-0.50;99.90
70726;DHT22;58304;53.104;6.022;2023-03-03T02:11:21;-0.60;99.90
70726;DHT22;58304;53.104;6.022;2023-03-03T02:13:48;-0.60;99.90
70726;DHT22;58304;53.104;6.022;2023-03-03T02:16:14;-0.70;99.90
70726;DHT22;58304;53.104;6.022;2023-03-03T02:18:40;-0.70;99.90
70726;DHT22;58304;53.104;6.022;2023-03-03T02:21:13;-0.70;99.90
70726;DHT22;58304;53.104;6.022;2023-03-03T02:23:49;-0.70;99.90
70726;DHT22;58304;53.104;6.022;2023-03-03T02:26:18;-0.80;99.90
70726;DHT22;58304;53.104;6.022;2023-03-03T02:28:47;-0.80;99.90
70726;DHT22;58304;53.104;6.022;2023-03-03T02:31:16;-0.90;99.90
70726;DHT22;58304;53.104;6.022;2023-03-03T02:33:44;-0.90;99.90
70726;DHT22;58304;53.104;6.022;2023-03-03T02:36:19;-0.90;99.90
70726;DHT22;58304;53.104;6.022;2023-03-03T02:41:34;-1.00;99.90
70726;DHT22;58304;53.104;6.022;2023-03-03T02:44:09;-1.00;99.90
70726;DHT22;58304;53.104;6.022;2023-03-03T02:46:37;-1.00;99.90
70726;DHT22;58304;53.104;6.022;2023-03-03T02:49:04;-1.10;99.90
70726;DHT22;58304;53.104;6.022;2023-03-03T02:51:30;-1.10;99.90
70726;DHT22;58304;53.104;6.022;2023-03-03T02:53:56;-1.20;99.90
70726;DHT22;58304;53.104;6.022;2023-03-03T02:56:22;-1.20;99.90
70726;DHT22;58304;53.104;6.022;2023-03-03T02:58:48;-1.30;99.90
70726;DHT22;58304;53.104;6.022;2023-03-03T03:01:13;-1.30;99.90
70726;DHT22;58304;53.104;6.022;2023-03-03T03:03:39;-1.40;99.90
70726;DHT22;58304;53.104;6.022;2023-03-03T03:06:05;-1.40;99.90
70726;DHT22;58304;53.104;6.022;2023-03-03T03:08:30;-1.40;99.90
70726;DHT22;58304;53.104;6.022;2023-03-03T03:10:56;-1.50;99.90
70726;DHT22;58304;53.104;6.022;2023-03-03T03:13:23;-1.50;99.90
70726;DHT22;58304;53.104;6.022;2023-03-03T03:15:49;-1.50;99.90
70726;DHT22;58304;53.104;6.022;2023-03-03T03:18:15;-1.50;99.90
70726;DHT22;58304;53.104;6.022;2023-03-03T03:20:40;-1.50;99.90
70726;DHT22;58304;53.104;6.022;2023-03-03T03:23:07;-1.40;99.90
70726;DHT22;58304;53.104;6.022;2023-03-03T03:25:33;-1.40;99.90
70726;DHT22;58304;53.104;6.022;2023-03-03T03:27:58;-1.40;99.90
70726;DHT22;58304;53.104;6.022;2023-03-03T03:30:24;-1.40;99.90
70726;DHT22;58304;53.104;6.022;2023-03-03T03:32:50;-1.40;99.90
70726;DHT22;58304;53.104;6.022;2023-03-03T03:35:15;-1.40;99.90
70726;DHT22;58304;53.104;6.022;2023-03-03T03:37:44;-1.40;99.90
70726;DHT22;58304;53.104;6.022;2023-03-03T03:40:10;-1.40;99.90
70726;DHT22;58304;53.104;6.022;2023-03-03T03:42:35;-1.40;99.90
70726;DHT22;58304;53.104;6.022;2023-03-03T03:45:03;-1.40;99.90
70726;DHT22;58304;53.104;6.022;2023-03-03T03:47:29;-1.40;99.90
70726;DHT22;58304;53.104;6.022;2023-03-03T03:49:54;-1.40;99.90
70726;DHT22;58304;53.104;6.022;2023-03-03T03:52:20;-1.40;99.90
70726;DHT22;58304;53.104;6.022;2023-03-03T03:54:45;-1.40;99.90
70726;DHT22;58304;53.104;6.022;2023-03-03T03:57:11;-1.40;99.90
70726;DHT22;58304;53.104;6.022;2023-03-03T03:59:36;-1.50;99.90
70726;DHT22;58304;53.104;6.022;2023-03-03T04:02:03;-1.50;99.90
70726;DHT22;58304;53.104;6.022;2023-03-03T04:04:28;-1.50;99.90
70726;DHT22;58304;53.104;6.022;2023-03-03T04:06:54;-1.50;99.90
70726;DHT22;58304;53.104;6.022;2023-03-03T04:09:20;-1.50;99.90
70726;DHT22;58304;53.104;6.022;2023-03-03T04:11:46;-1.50;99.90
70726;DHT22;58304;53.104;6.022;2023-03-03T04:14:11;-1.50;99.90
70726;DHT22;58304;53.104;6.022;2023-03-03T04:16:37;-1.50;99.90
70726;DHT22;58304;53.104;6.022;2023-03-03T04:19:03;-1.50;99.90
70726;DHT22;58304;53.104;6.022;2023-03-03T04:21:28;-1.50;99.90
70726;DHT22;58304;53.104;6.022;2023-03-03T04:23:54;-1.50;99.90
70726;DHT22;58304;53.104;6.022;2023-03-03T04:26:19;-1.50;99.90
70726;DHT22;58304;53.104;6.022;2023-03-03T04:28:45;-1.50;99.90
70726;DHT22;58304;53.104;6.022;2023-03-03T04:31:11;-1.50;99.90
70726;DHT22;58304;53.104;6.022;2023-03-03T04:33:37;-1.50;99.90
70726;DHT22;58304;53.104;6.022;2023-03-03T04:36:03;-1.50;99.90
70726;DHT22;58304;53.104;6.022;2023-03-03T04:38:28;-1.60;99.90
70726;DHT22;58304;53.104;6.022;2023-03-03T04:40:55;-1.60;99.90
70726;DHT22;58304;53.104;6.022;2023-03-03T04:43:21;-1.60;99.90
70726;DHT22;58304;53.104;6.022;2023-03-03T04:45:46;-1.70;99.90
70726;DHT22;58304;53.104;6.022;2023-03-03T04:48:12;-1.70;99.90
70726;DHT22;58304;53.104;6.022;2023-03-03T04:50:37;-1.80;99.90
70726;DHT22;58304;53.104;6.022;2023-03-03T04:53:03;-1.90;99.90
70726;DHT22;58304;53.104;6.022;2023-03-03T04:55:28;-1.90;99.90
70726;DHT22;58304;53.104;6.022;2023-03-03T04:57:54;-2.00;99.90
70726;DHT22;58304;53.104;6.022;2023-03-03T05:00:20;-1.90;99.90
70726;DHT22;58304;53.104;6.022;2023-03-03T05:02:47;-2.00;99.90
70726;DHT22;58304;53.104;6.022;2023-03-03T05:05:13;-2.00;99.90
70726;DHT22;58304;53.104;6.022;2023-03-03T05:07:39;-2.00;99.90
70726;DHT22;58304;53.104;6.022;2023-03-03T05:10:06;-2.10;99.90
70726;DHT22;58304;53.104;6.022;2023-03-03T05:12:32;-2.10;99.90
70726;DHT22;58304;53.104;6.022;2023-03-03T05:14:57;-2.10;99.90
70726;DHT22;58304;53.104;6.022;2023-03-03T05:17:23;-2.10;99.90
70726;DHT22;58304;53.104;6.022;2023-03-03T05:19:48;-2.10;99.90
70726;DHT22;58304;53.104;6.022;2023-03-03T05:22:14;-2.10;99.90
70726;DHT22;58304;53.104;6.022;2023-03-03T05:24:40;-2.10;99.90
70726;DHT22;58304;53.104;6.022;2023-03-03T05:27:07;-2.10;99.90
70726;DHT22;58304;53.104;6.022;2023-03-03T05:29:34;-2.00;99.90
70726;DHT22;58304;53.104;6.022;2023-03-03T05:32:00;-1.90;99.90
70726;DHT22;58304;53.104;6.022;2023-03-03T05:34:26;-1.80;99.90
70726;DHT22;58304;53.104;6.022;2023-03-03T05:36:51;-1.90;99.90
70726;DHT22;58304;53.104;6.022;2023-03-03T05:39:17;-1.90;99.90
70726;DHT22;58304;53.104;6.022;2023-03-03T05:41:43;-1.80;99.90
70726;DHT22;58304;53.104;6.022;2023-03-03T05:44:09;-1.70;99.90
70726;DHT22;58304;53.104;6.022;2023-03-03T05:46:34;-1.80;99.90
70726;DHT22;58304;53.104;6.022;2023-03-03T05:49:00;-1.80;99.90
70726;DHT22;58304;53.104;6.022;2023-03-03T05:51:26;-1.80;99.90
70726;DHT22;58304;53.104;6.022;2023-03-03T05:53:52;-1.80;99.90
70726;DHT22;58304;53.104;6.022;2023-03-03T05:56:17;-1.80;99.90
70726;DHT22;58304;53.104;6.022;2023-03-03T05:58:43;-1.90;99.90
70726;DHT22;58304;53.104;6.022;2023-03-03T06:01:09;-1.90;99.90
70726;DHT22;58304;53.104;6.022;2023-03-03T06:03:34;-2.00;99.90
70726;DHT22;58304;53.104;6.022;2023-03-03T06:06:00;-2.00;99.90
70726;DHT22;58304;53.104;6.022;2023-03-03T06:08:25;-2.00;99.90
70726;DHT22;58304;53.104;6.022;2023-03-03T06:10:51;-2.00;99.90
70726;DHT22;58304;53.104;6.022;2023-03-03T06:13:16;-2.00;99.90
70726;DHT22;58304;53.104;6.022;2023-03-03T06:15:42;-2.00;99.90
70726;DHT22;58304;53.104;6.022;2023-03-03T06:18:08;-2.10;99.90
70726;DHT22;58304;53.104;6.022;2023-03-03T06:20:34;-2.00;99.90
70726;DHT22;58304;53.104;6.022;2023-03-03T06:23:00;-2.10;99.90
70726;DHT22;58304;53.104;6.022;2023-03-03T06:25:26;-2.00;99.90
70726;DHT22;58304;53.104;6.022;2023-03-03T06:27:53;-2.00;99.90
70726;DHT22;58304;53.104;6.022;2023-03-03T06:30:19;-2.00;99.90
70726;DHT22;58304;53.104;6.022;2023-03-03T06:32:45;-1.90;99.90
70726;DHT22;58304;53.104;6.022;2023-03-03T06:35:11;-1.90;99.90
70726;DHT22;58304;53.104;6.022;2023-03-03T06:37:37;-1.90;99.90
70726;DHT22;58304;53.104;6.022;2023-03-03T06:40:04;-1.90;99.90
70726;DHT22;58304;53.104;6.022;2023-03-03T06:42:30;-1.80;99.90
70726;DHT22;58304;53.104;6.022;2023-03-03T06:44:55;-1.70;99.90
70726;DHT22;58304;53.104;6.022;2023-03-03T06:47:21;-1.40;99.90
70726;DHT22;58304;53.104;6.022;2023-03-03T06:49:47;-1.30;99.90
70726;DHT22;58304;53.104;6.022;2023-03-03T06:52:18;-1.20;99.90
70726;DHT22;58304;53.104;6.022;2023-03-03T06:54:44;-1.10;99.90
70726;DHT22;58304;53.104;6.022;2023-03-03T06:59:52;-0.80;99.90
70726;DHT22;58304;53.104;6.022;2023-03-03T07:02:18;-0.60;99.90
70726;DHT22;58304;53.104;6.022;2023-03-03T07:04:45;-0.60;99.90
70726;DHT22;58304;53.104;6.022;2023-03-03T07:07:19;-0.50;99.90
70726;DHT22;58304;53.104;6.022;2023-03-03T07:09:51;-0.40;99.90
70726;DHT22;58304;53.104;6.022;2023-03-03T07:12:26;-0.10;99.90
70726;DHT22;58304;53.104;6.022;2023-03-03T07:17:47;2.50;99.90
70726;DHT22;58304;53.104;6.022;2023-03-03T07:22:42;5.20;99.90
70726;DHT22;58304;53.104;6.022;2023-03-03T07:25:18;6.10;99.90
70726;DHT22;58304;53.104;6.022;2023-03-03T07:27:44;6.90;99.90
70726;DHT22;58304;53.104;6.022;2023-03-03T07:30:24;7.60;99.90
70726;DHT22;58304;53.104;6.022;2023-03-03T07:32:54;7.70;99.90
70726;DHT22;58304;53.104;6.022;2023-03-03T07:35:36;7.90;99.90
70726;DHT22;58304;53.104;6.022;2023-03-03T07:38:41;8.10;99.90
70726;DHT22;58304;53.104;6.022;2023-03-03T07:41:14;8.50;99.90
70726;DHT22;58304;53.104;6.022;2023-03-03T07:43:54;8.70;99.90
70726;DHT22;58304;53.104;6.022;2023-03-03T07:46:43;9.40;99.90
70726;DHT22;58304;53.104;6.022;2023-03-03T07:49:28;10.20;99.90
70726;DHT22;58304;53.104;6.022;2023-03-03T07:51:58;10.90;99.90
70726;DHT22;58304;53.104;6.022;2023-03-03T07:54:33;11.40;99.90
70726;DHT22;58304;53.104;6.022;2023-03-03T07:59:35;12.40;99.90
70726;DHT22;58304;53.104;6.022;2023-03-03T08:02:01;13.00;99.90
70726;DHT22;58304;53.104;6.022;2023-03-03T08:04:37;13.60;99.90
70726;DHT22;58304;53.104;6.022;2023-03-03T08:07:11;14.10;99.90
70726;DHT22;58304;53.104;6.022;2023-03-03T08:09:57;14.30;99.90
70726;DHT22;58304;53.104;6.022;2023-03-03T08:12:37;14.60;99.90
70726;DHT22;58304;53.104;6.022;2023-03-03T08:15:30;14.80;99.50
70726;DHT22;58304;53.104;6.022;2023-03-03T08:17:58;14.80;97.40
70726;DHT22;58304;53.104;6.022;2023-03-03T08:20:38;14.90;97.30
70726;DHT22;58304;53.104;6.022;2023-03-03T08:23:05;15.10;97.10
70726;DHT22;58304;53.104;6.022;2023-03-03T08:25:30;15.60;98.00
70726;DHT22;58304;53.104;6.022;2023-03-03T08:27:56;15.90;97.50
70726;DHT22;58304;53.104;6.022;2023-03-03T08:30:22;16.50;97.60
70726;DHT22;58304;53.104;6.022;2023-03-03T08:32:47;17.10;96.50
70726;DHT22;58304;53.104;6.022;2023-03-03T08:35:18;17.80;95.80
70726;DHT22;58304;53.104;6.022;2023-03-03T08:37:44;18.50;95.00
70726;DHT22;58304;53.104;6.022;2023-03-03T08:40:10;18.50;94.30
70726;DHT22;58304;53.104;6.022;2023-03-03T08:42:36;18.30;93.80
70726;DHT22;58304;53.104;6.022;2023-03-03T08:45:36;18.60;93.40
70726;DHT22;58304;53.104;6.022;2023-03-03T08:48:05;18.30;91.80
70726;DHT22;58304;53.104;6.022;2023-03-03T08:50:32;18.70;93.20
70726;DHT22;58304;53.104;6.022;2023-03-03T08:52:57;19.00;91.80
70726;DHT22;58304;53.104;6.022;2023-03-03T08:55:23;18.90;91.30
70726;DHT22;58304;53.104;6.022;2023-03-03T08:57:49;19.30;90.80
70726;DHT22;58304;53.104;6.022;2023-03-03T09:00:16;18.80;92.20
70726;DHT22;58304;53.104;6.022;2023-03-03T09:02:43;18.70;91.80
70726;DHT22;58304;53.104;6.022;2023-03-03T09:05:09;18.80;90.30
70726;DHT22;58304;53.104;6.022;2023-03-03T09:07:35;19.20;89.70
70726;DHT22;58304;53.104;6.022;2023-03-03T09:10:01;19.60;88.80
70726;DHT22;58304;53.104;6.022;2023-03-03T09:12:37;19.50;88.70
70726;DHT22;58304;53.104;6.022;2023-03-03T09:17:44;18.70;86.70
70726;DHT22;58304;53.104;6.022;2023-03-03T09:20:30;18.70;87.60
70726;DHT22;58304;53.104;6.022;2023-03-03T09:22:57;18.30;85.60
70726;DHT22;58304;53.104;6.022;2023-03-03T09:25:35;17.90;89.80
70726;DHT22;58304;53.104;6.022;2023-03-03T09:28:02;17.60;87.50
70726;DHT22;58304;53.104;6.022;2023-03-03T09:30:37;18.90;89.70
70726;DHT22;58304;53.104;6.022;2023-03-03T09:33:30;19.10;87.40
70726;DHT22;58304;53.104;6.022;2023-03-03T09:36:10;19.00;89.70
70726;DHT22;58304;53.104;6.022;2023-03-03T09:38:40;20.60;86.70
70726;DHT22;58304;53.104;6.022;2023-03-03T09:44:44;22.40;79.60
70726;DHT22;58304;53.104;6.022;2023-03-03T09:56:09;19.30;72.00
70726;DHT22;58304;53.104;6.022;2023-03-03T10:10:15;16.10;83.00
70726;DHT22;58304;53.104;6.022;2023-03-03T10:18:28;13.90;83.50
70726;DHT22;58304;53.104;6.022;2023-03-03T10:21:16;13.10;85.20
70726;DHT22;58304;53.104;6.022;2023-03-03T10:26:49;12.60;90.00
70726;DHT22;58304;53.104;6.022;2023-03-03T10:29:40;12.50;90.00
70726;DHT22;58304;53.104;6.022;2023-03-03T10:40:24;11.80;93.40
70726;DHT22;58304;53.104;6.022;2023-03-03T10:46:14;11.50;93.40
70726;DHT22;58304;53.104;6.022;2023-03-03T10:49:00;11.40;94.40
70726;DHT22;58304;53.104;6.022;2023-03-03T10:57:03;11.30;95.70
70726;DHT22;58304;53.104;6.022;2023-03-03T11:02:54;11.30;95.20
70726;DHT22;58304;53.104;6.022;2023-03-03T11:05:28;11.20;95.70
70726;DHT22;58304;53.104;6.022;2023-03-03T11:08:04;11.00;95.70
70726;DHT22;58304;53.104;6.022;2023-03-03T11:21:03;12.70;95.90
70726;DHT22;58304;53.104;6.022;2023-03-03T11:26:43;14.40;92.80
70726;DHT22;58304;53.104;6.022;2023-03-03T11:29:20;13.40;92.20
70726;DHT22;58304;53.104;6.022;2023-03-03T11:35:21;11.70;94.60
70726;DHT22;58304;53.104;6.022;2023-03-03T11:38:47;11.30;95.80
70726;DHT22;58304;53.104;6.022;2023-03-03T11:41:29;11.30;94.90
70726;DHT22;58304;53.104;6.022;2023-03-03T11:44:10;11.20;95.30
70726;DHT22;58304;53.104;6.022;2023-03-03T11:46:52;11.30;96.20
70726;DHT22;58304;53.104;6.022;2023-03-03T11:49:46;10.90;95.50
70726;DHT22;58304;53.104;6.022;2023-03-03T11:55:07;11.30;96.90
70726;DHT22;58304;53.104;6.022;2023-03-03T12:05:30;11.10;97.60
70726;DHT22;58304;53.104;6.022;2023-03-03T12:08:15;10.70;98.60
70726;DHT22;58304;53.104;6.022;2023-03-03T12:19:16;11.00;98.20
70726;DHT22;58304;53.104;6.022;2023-03-03T12:21:47;11.20;98.90
70726;DHT22;58304;53.104;6.022;2023-03-03T12:26:53;10.70;98.80
70726;DHT22;58304;53.104;6.022;2023-03-03T12:29:32;10.80;99.60
70726;DHT22;58304;53.104;6.022;2023-03-03T12:40:33;10.80;99.90
70726;DHT22;58304;53.104;6.022;2023-03-03T12:43:02;10.60;99.90
70726;DHT22;58304;53.104;6.022;2023-03-03T12:48:37;10.30;99.90
70726;DHT22;58304;53.104;6.022;2023-03-03T12:51:10;10.40;99.90
70726;DHT22;58304;53.104;6.022;2023-03-03T12:54:02;10.50;99.90
70726;DHT22;58304;53.104;6.022;2023-03-03T12:56:39;10.70;99.90
70726;DHT22;58304;53.104;6.022;2023-03-03T13:07:50;10.40;99.90
70726;DHT22;58304;53.104;6.022;2023-03-03T13:16:00;9.80;99.90
70726;DHT22;58304;53.104;6.022;2023-03-03T13:18:54;10.40;99.90
70726;DHT22;58304;53.104;6.022;2023-03-03T13:21:34;11.40;99.90
70726;DHT22;58304;53.104;6.022;2023-03-03T13:27:19;12.40;99.60
70726;DHT22;58304;53.104;6.022;2023-03-03T13:32:20;11.40;99.30
70726;DHT22;58304;53.104;6.022;2023-03-03T13:35:13;11.50;99.90
70726;DHT22;58304;53.104;6.022;2023-03-03T13:37:44;11.20;99.90
70726;DHT22;58304;53.104;6.022;2023-03-03T13:40:21;10.90;99.90
70726;DHT22;58304;53.104;6.022;2023-03-03T13:43:12;10.60;99.90
70726;DHT22;58304;53.104;6.022;2023-03-03T13:46:33;10.50;99.90
70726;DHT22;58304;53.104;6.022;2023-03-03T14:05:48;9.70;99.90
70726;DHT22;58304;53.104;6.022;2023-03-03T14:13:36;10.10;99.90
70726;DHT22;58304;53.104;6.022;2023-03-03T14:16:20;10.00;99.90
70726;DHT22;58304;53.104;6.022;2023-03-03T14:19:02;9.80;99.90
70726;DHT22;58304;53.104;6.022;2023-03-03T14:21:34;9.70;99.90
70726;DHT22;58304;53.104;6.022;2023-03-03T14:24:16;9.50;99.90
70726;DHT22;58304;53.104;6.022;2023-03-03T14:26:54;9.60;99.90
70726;DHT22;58304;53.104;6.022;2023-03-03T14:31:56;9.50;99.90
70726;DHT22;58304;53.104;6.022;2023-03-03T14:36:56;9.00;99.90
70726;DHT22;58304;53.104;6.022;2023-03-03T14:39:32;9.00;99.90
70726;DHT22;58304;53.104;6.022;2023-03-03T14:41:59;8.70;99.90
70726;DHT22;58304;53.104;6.022;2023-03-03T14:44:30;8.70;99.90
70726;DHT22;58304;53.104;6.022;2023-03-03T14:47:10;8.60;99.90
70726;DHT22;58304;53.104;6.022;2023-03-03T14:49:38;8.50;99.90
70726;DHT22;58304;53.104;6.022;2023-03-03T14:54:48;8.30;99.90
70726;DHT22;58304;53.104;6.022;2023-03-03T14:57:16;8.30;99.90
70726;DHT22;58304;53.104;6.022;2023-03-03T15:02:43;8.30;99.90
70726;DHT22;58304;53.104;6.022;2023-03-03T15:05:24;8.30;99.90
70726;DHT22;58304;53.104;6.022;2023-03-03T15:07:53;8.20;99.90
70726;DHT22;58304;53.104;6.022;2023-03-03T15:10:28;8.10;99.90
70726;DHT22;58304;53.104;6.022;2023-03-03T15:12:54;8.10;99.90
70726;DHT22;58304;53.104;6.022;2023-03-03T15:15:21;8.10;99.90
70726;DHT22;58304;53.104;6.022;2023-03-03T15:17:56;8.10;99.90
70726;DHT22;58304;53.104;6.022;2023-03-03T15:20:40;8.00;99.90
70726;DHT22;58304;53.104;6.022;2023-03-03T15:26:26;7.90;99.90
70726;DHT22;58304;53.104;6.022;2023-03-03T15:29:23;7.90;99.90
70726;DHT22;58304;53.104;6.022;2023-03-03T15:32:16;7.80;99.90
70726;DHT22;58304;53.104;6.022;2023-03-03T15:34:53;7.80;99.90
70726;DHT22;58304;53.104;6.022;2023-03-03T15:37:51;7.80;99.90
70726;DHT22;58304;53.104;6.022;2023-03-03T15:42:49;7.70;99.90
70726;DHT22;58304;53.104;6.022;2023-03-03T15:45:31;7.70;99.90
70726;DHT22;58304;53.104;6.022;2023-03-03T15:59:19;7.60;99.90
70726;DHT22;58304;53.104;6.022;2023-03-03T16:04:27;7.50;99.90
70726;DHT22;58304;53.104;6.022;2023-03-03T16:07:03;7.50;99.90
70726;DHT22;58304;53.104;6.022;2023-03-03T16:18:02;7.30;99.90
70726;DHT22;58304;53.104;6.022;2023-03-03T16:23:30;7.20;99.90
70726;DHT22;58304;53.104;6.022;2023-03-03T16:29:15;7.20;99.90
70726;DHT22;58304;53.104;6.022;2023-03-03T16:32:07;7.10;99.90
70726;DHT22;58304;53.104;6.022;2023-03-03T16:34:55;7.10;99.90
70726;DHT22;58304;53.104;6.022;2023-03-03T16:37:38;7.10;99.90
70726;DHT22;58304;53.104;6.022;2023-03-03T16:40:47;7.10;99.90
70726;DHT22;58304;53.104;6.022;2023-03-03T16:43:24;7.10;99.90
70726;DHT22;58304;53.104;6.022;2023-03-03T16:45:57;7.00;99.90
70726;DHT22;58304;53.104;6.022;2023-03-03T16:48:34;7.00;99.90
70726;DHT22;58304;53.104;6.022;2023-03-03T16:51:20;6.90;99.90
70726;DHT22;58304;53.104;6.022;2023-03-03T16:56:17;6.90;99.90
70726;DHT22;58304;53.104;6.022;2023-03-03T17:02:01;6.80;99.90
70726;DHT22;58304;53.104;6.022;2023-03-03T17:04:42;6.80;99.90
70726;DHT22;58304;53.104;6.022;2023-03-03T17:10:40;6.80;99.90
70726;DHT22;58304;53.104;6.022;2023-03-03T17:13:23;6.70;99.90
70726;DHT22;58304;53.104;6.022;2023-03-03T17:16:18;6.60;99.90
70726;DHT22;58304;53.104;6.022;2023-03-03T17:18:55;6.60;99.90
70726;DHT22;58304;53.104;6.022;2023-03-03T17:21:36;6.60;99.90
70726;DHT22;58304;53.104;6.022;2023-03-03T17:27:06;6.50;99.90
70726;DHT22;58304;53.104;6.022;2023-03-03T17:32:47;6.50;99.90
70726;DHT22;58304;53.104;6.022;2023-03-03T17:37:52;6.50;99.90
70726;DHT22;58304;53.104;6.022;2023-03-03T17:45:55;6.30;99.90
70726;DHT22;58304;53.104;6.022;2023-03-03T17:48:33;6.30;99.90
70726;DHT22;58304;53.104;6.022;2023-03-03T18:00:17;6.40;99.90
70726;DHT22;58304;53.104;6.022;2023-03-03T18:03:20;6.40;99.90
70726;DHT22;58304;53.104;6.022;2023-03-03T18:09:05;6.30;99.90
70726;DHT22;58304;53.104;6.022;2023-03-03T18:17:42;6.30;99.90
70726;DHT22;58304;53.104;6.022;2023-03-03T18:28:21;6.20;99.90
70726;DHT22;58304;53.104;6.022;2023-03-03T18:30:59;6.20;99.90
70726;DHT22;58304;53.104;6.022;2023-03-03T18:33:55;6.30;99.90
70726;DHT22;58304;53.104;6.022;2023-03-03T18:38:53;6.20;99.90
70726;DHT22;58304;53.104;6.022;2023-03-03T18:41:31;6.20;99.90
70726;DHT22;58304;53.104;6.022;2023-03-03T18:43:59;6.30;99.90
70726;DHT22;58304;53.104;6.022;2023-03-03T18:49:06;6.30;99.90
70726;DHT22;58304;53.104;6.022;2023-03-03T19:23:55;6.10;99.90
70726;DHT22;58304;53.104;6.022;2023-03-03T19:26:30;6.10;99.90
70726;DHT22;58304;53.104;6.022;2023-03-03T19:40:27;6.10;99.90
70726;DHT22;58304;53.104;6.022;2023-03-03T19:46:02;6.00;99.90
70726;DHT22;58304;53.104;6.022;2023-03-03T19:48:50;6.00;99.90
70726;DHT22;58304;53.104;6.022;2023-03-03T19:51:40;6.00;99.90
70726;DHT22;58304;53.104;6.022;2023-03-03T19:54:32;6.00;99.90
70726;DHT22;58304;53.104;6.022;2023-03-03T19:57:02;6.10;99.90
70726;DHT22;58304;53.104;6.022;2023-03-03T19:59:44;6.10;99.90
70726;DHT22;58304;53.104;6.022;2023-03-03T20:10:41;6.10;99.90
70726;DHT22;58304;53.104;6.022;2023-03-03T20:16:15;6.10;99.90
70726;DHT22;58304;53.104;6.022;2023-03-03T20:21:39;6.00;99.90
70726;DHT22;58304;53.104;6.022;2023-03-03T20:34:40;6.00;99.90
70726;DHT22;58304;53.104;6.022;2023-03-03T20:37:30;6.00;99.90
70726;DHT22;58304;53.104;6.022;2023-03-03T20:40:22;6.00;99.90
70726;DHT22;58304;53.104;6.022;2023-03-03T20:43:14;6.00;99.90
70726;DHT22;58304;53.104;6.022;2023-03-03T20:51:47;6.00;99.90
70726;DHT22;58304;53.104;6.022;2023-03-03T21:02:38;6.00;99.90
70726;DHT22;58304;53.104;6.022;2023-03-03T21:07:59;6.00;99.90
70726;DHT22;58304;53.104;6.022;2023-03-03T21:10:31;6.00;99.90
70726;DHT22;58304;53.104;6.022;2023-03-03T21:13:33;5.90;99.90
70726;DHT22;58304;53.104;6.022;2023-03-03T21:16:31;6.00;99.90
70726;DHT22;58304;53.104;6.022;2023-03-03T21:19:02;5.90;99.90
70726;DHT22;58304;53.104;6.022;2023-03-03T21:21:30;5.90;99.90
70726;DHT22;58304;53.104;6.022;2023-03-03T21:23:57;6.00;99.90
70726;DHT22;58304;53.104;6.022;2023-03-03T21:26:47;5.90;99.90
70726;DHT22;58304;53.104;6.022;2023-03-03T21:29:33;5.80;99.90
70726;DHT22;58304;53.104;6.022;2023-03-03T21:32:04;5.90;99.90
70726;DHT22;58304;53.104;6.022;2023-03-03T21:34:33;5.90;99.90
70726;DHT22;58304;53.104;6.022;2023-03-03T21:37:05;5.90;99.90
70726;DHT22;58304;53.104;6.022;2023-03-03T21:42:01;5.90;99.90
70726;DHT22;58304;53.104;6.022;2023-03-03T21:44:32;5.90;99.90
70726;DHT22;58304;53.104;6.022;2023-03-03T21:46:58;5.90;99.90
70726;DHT22;58304;53.104;6.022;2023-03-03T21:49:23;5.90;99.90
70726;DHT22;58304;53.104;6.022;2023-03-03T21:51:49;5.90;99.90
70726;DHT22;58304;53.104;6.022;2023-03-03T21:54:14;5.80;99.90
70726;DHT22;58304;53.104;6.022;2023-03-03T21:56:40;5.80;99.90
70726;DHT22;58304;53.104;6.022;2023-03-03T21:59:09;5.80;99.90
70726;DHT22;58304;53.104;6.022;2023-03-03T22:01:34;5.80;99.90
70726;DHT22;58304;53.104;6.022;2023-03-03T22:04:00;5.80;99.90
70726;DHT22;58304;53.104;6.022;2023-03-03T22:06:26;5.80;99.90
70726;DHT22;58304;53.104;6.022;2023-03-03T22:08:53;5.80;99.90
70726;DHT22;58304;53.104;6.022;2023-03-03T22:11:18;5.80;99.90
70726;DHT22;58304;53.104;6.022;2023-03-03T22:13:44;5.90;99.90